createdAt,value
2023-05-17T00:02:05.509Z,16.39404296875
2023-05-17T00:12:05.344Z,17.39501953125
2023-05-17T00:22:05.216Z,17.5048828125
2023-05-17T00:32:05.142Z,17.6025390625
2023-05-17T00:42:05.085Z,18.10302734375
2023-05-17T00:52:04.990Z,18.00537109375
2023-05-17T01:02:04.926Z,18.39599609375
2023-05-17T01:12:04.867Z,18.505859375
2023-05-17T01:22:04.844Z,18.29833984375
2023-05-17T01:32:04.968Z,17.8955078125
2023-05-17T01:42:04.713Z,17.10205078125
2023-05-17T01:52:04.596Z,16.50390625
2023-05-17T02:02:04.510Z,16.50390625
2023-05-17T02:12:04.472Z,16.29638671875
2023-05-17T02:22:04.340Z,16.10107421875
2023-05-17T02:32:04.280Z,15.7958984375
2023-05-17T02:42:04.202Z,15.7958984375
2023-05-17T02:52:04.151Z,15.6982421875
2023-05-17T03:02:04.035Z,15.4052734375
2023-05-17T03:12:04.004Z,15.29541015625
2023-05-17T03:22:03.909Z,15.19775390625
2023-05-17T03:32:03.928Z,15.10009765625
2023-05-17T03:42:03.759Z,14.90478515625
2023-05-17T03:52:03.685Z,14.794921875
2023-05-17T04:02:03.658Z,14.697265625
2023-05-17T04:12:03.534Z,14.599609375
2023-05-17T04:22:03.474Z,14.404296875
2023-05-17T04:32:03.393Z,14.19677734375
2023-05-17T04:42:03.364Z,14.09912109375
2023-05-17T04:52:05.446Z,14.09912109375
2023-05-17T05:02:03.183Z,14.09912109375
2023-05-17T05:12:03.116Z,14.19677734375
2023-05-17T05:22:03.031Z,14.09912109375
2023-05-17T05:32:02.964Z,14.09912109375
2023-05-17T05:42:02.889Z,14.09912109375
2023-05-17T05:52:02.850Z,14.00146484375
2023-05-17T06:02:02.756Z,14.09912109375
2023-05-17T06:12:02.692Z,14.19677734375
2023-05-17T06:22:02.597Z,14.09912109375
2023-05-17T06:32:02.555Z,14.29443359375
2023-05-17T06:42:02.578Z,14.09912109375
2023-05-17T06:52:02.457Z,14.00146484375
2023-05-17T07:02:02.332Z,14.00146484375
2023-05-17T07:12:02.273Z,13.90380859375
2023-05-17T07:22:02.234Z,13.7939453125
2023-05-17T07:32:02.114Z,13.7939453125
2023-05-17T07:42:03.288Z,13.6962890625
2023-05-17T07:52:02.113Z,13.7939453125
2023-05-17T08:02:01.904Z,13.7939453125
2023-05-17T08:12:01.843Z,13.7939453125
2023-05-17T08:22:01.780Z,13.6962890625
2023-05-17T08:32:01.668Z,13.5986328125
2023-05-17T08:42:01.666Z,13.7939453125
2023-05-17T08:52:01.552Z,13.5986328125
2023-05-17T09:02:01.490Z,13.5986328125
2023-05-17T09:12:01.485Z,13.4033203125
2023-05-17T09:22:01.512Z,13.4033203125
2023-05-17T09:32:01.256Z,13.5009765625
2023-05-17T09:42:01.193Z,13.5986328125
2023-05-17T09:52:01.251Z,13.4033203125
2023-05-17T10:02:01.043Z,13.5986328125
2023-05-17T10:12:01.014Z,13.5009765625
2023-05-17T10:22:14.684Z,13.4033203125
2023-05-17T10:32:00.923Z,13.4033203125
2023-05-17T10:42:13.521Z,13.5009765625
2023-05-17T10:52:00.678Z,13.5986328125
2023-05-17T11:02:00.968Z,13.5009765625
2023-05-17T11:12:01.120Z,13.5009765625
2023-05-17T11:22:00.680Z,13.4033203125
2023-05-17T11:32:00.437Z,13.19580078125
2023-05-17T11:42:00.382Z,13.09814453125
2023-05-17T11:52:00.237Z,13.19580078125
2023-05-17T12:02:00.390Z,13.09814453125
2023-05-17T12:12:00.157Z,13.3056640625
2023-05-17T12:22:00.162Z,13.19580078125
2023-05-17T12:42:00.303Z,13.4033203125
2023-05-17T12:52:00.473Z,13.5009765625
2023-05-17T13:01:59.858Z,13.4033203125
2023-05-17T13:11:59.961Z,13.3056640625
2023-05-17T13:21:59.657Z,13.4033203125
2023-05-17T13:31:59.540Z,13.3056640625
2023-05-17T13:41:59.482Z,13.3056640625
2023-05-17T13:51:59.401Z,13.19580078125
2023-05-17T14:01:59.440Z,13.09814453125
2023-05-17T14:12:01.021Z,13.3056640625
2023-05-17T14:21:59.448Z,13.4033203125
2023-05-17T14:31:59.125Z,13.4033203125
2023-05-17T14:41:59.106Z,13.09814453125
2023-05-17T14:51:59.418Z,13.19580078125
2023-05-17T15:01:58.985Z,13.19580078125
2023-05-17T15:11:58.873Z,13.3056640625
2023-05-17T15:21:58.752Z,13.19580078125
2023-05-17T15:31:58.843Z,13.4033203125
2023-05-17T15:41:58.608Z,13.19580078125
2023-05-17T15:51:58.543Z,13.09814453125
2023-05-17T16:01:58.448Z,13.09814453125
2023-05-17T16:11:58.417Z,13.3056640625
2023-05-17T16:21:58.310Z,13.5009765625
2023-05-17T16:31:58.277Z,13.5009765625
2023-05-17T16:41:58.171Z,13.5009765625
2023-05-17T16:51:58.097Z,13.5009765625
2023-05-17T17:01:58.036Z,13.5986328125
2023-05-17T17:11:57.976Z,13.5986328125
2023-05-17T17:21:57.933Z,13.5986328125
2023-05-17T17:31:57.871Z,13.5009765625
2023-05-17T17:41:57.954Z,13.5009765625
2023-05-17T17:51:57.677Z,13.5986328125
2023-05-17T18:01:57.662Z,13.5986328125
2023-05-17T18:11:57.746Z,13.5009765625
2023-05-17T18:21:57.456Z,13.7939453125
2023-05-17T18:31:57.503Z,13.7939453125
2023-05-17T18:41:57.384Z,13.6962890625
2023-05-17T18:51:57.402Z,13.6962890625
2023-05-17T19:01:57.193Z,13.6962890625
2023-05-17T19:11:57.493Z,13.5009765625
2023-05-17T19:21:57.098Z,13.4033203125
2023-05-17T19:31:57.081Z,13.5009765625
2023-05-17T19:41:56.977Z,13.5009765625
2023-05-17T19:51:56.852Z,13.5009765625
2023-05-17T20:01:56.783Z,13.5009765625
2023-05-17T20:11:56.733Z,13.4033203125
2023-05-17T20:21:56.881Z,13.5009765625
2023-05-17T20:31:56.657Z,13.5986328125
2023-05-17T20:41:56.477Z,13.5986328125
2023-05-17T20:51:56.395Z,13.6962890625
2023-05-17T21:01:56.482Z,13.6962890625
2023-05-17T21:11:56.439Z,13.7939453125
2023-05-17T21:21:56.307Z,13.7939453125
2023-05-17T21:31:56.189Z,13.7939453125
2023-05-17T21:41:56.074Z,13.7939453125
2023-05-17T21:51:56.018Z,13.90380859375
2023-05-17T22:01:55.961Z,14.00146484375
2023-05-17T22:11:55.844Z,14.00146484375
2023-05-17T22:21:55.871Z,14.19677734375
2023-05-17T22:31:55.787Z,14.501953125
2023-05-17T22:41:55.741Z,14.697265625
2023-05-17T22:51:55.558Z,15.19775390625
2023-05-17T23:01:55.498Z,15.10009765625
2023-05-17T23:11:55.490Z,14.794921875
2023-05-17T23:21:55.313Z,14.794921875
2023-05-17T23:31:55.348Z,15.10009765625
2023-05-17T23:41:55.188Z,15.6005859375
2023-05-17T23:51:55.098Z,15.5029296875
